createdAt,value
2017-07-30T00:01:32.795Z,21.95
2017-07-30T00:04:00.199Z,21.97
2017-07-30T00:06:27.810Z,21.88
2017-07-30T00:08:55.195Z,21.87
2017-07-30T00:11:22.586Z,21.97
2017-07-30T00:13:49.985Z,21.95
2017-07-30T00:16:17.381Z,21.95
2017-07-30T00:18:44.776Z,21.99
2017-07-30T00:21:12.166Z,21.92
2017-07-30T00:23:39.560Z,21.88
2017-07-30T00:26:06.955Z,21.84
2017-07-30T00:28:34.355Z,21.81
2017-07-30T00:31:01.758Z,21.89
2017-07-30T00:33:29.160Z,21.87
2017-07-30T00:35:56.543Z,21.96
2017-07-30T00:38:24.174Z,22.00
2017-07-30T00:40:51.583Z,21.93
2017-07-30T00:43:18.974Z,21.88
2017-07-30T00:45:46.359Z,21.88
2017-07-30T00:48:13.758Z,21.85
2017-07-30T00:50:41.140Z,21.82
2017-07-30T00:53:08.534Z,21.85
2017-07-30T00:55:35.926Z,21.98
2017-07-30T00:58:03.319Z,21.96
2017-07-30T01:00:30.726Z,21.79
2017-07-30T01:02:58.130Z,21.93
2017-07-30T01:05:25.514Z,21.73
2017-07-30T01:07:52.916Z,21.65
2017-07-30T01:10:20.303Z,21.70
2017-07-30T01:12:47.701Z,21.74
2017-07-30T01:15:15.092Z,21.67
2017-07-30T01:17:42.482Z,21.70
2017-07-30T01:20:09.887Z,21.65
2017-07-30T01:22:37.274Z,21.65
2017-07-30T01:25:04.886Z,21.61
2017-07-30T01:27:32.498Z,21.55
2017-07-30T01:29:59.899Z,21.62
2017-07-30T01:32:27.343Z,21.68
2017-07-30T01:34:54.730Z,21.58
2017-07-30T01:37:22.124Z,21.62
2017-07-30T01:39:49.518Z,21.55
2017-07-30T01:42:16.914Z,21.57
2017-07-30T01:44:44.307Z,21.52
2017-07-30T01:47:11.695Z,21.56
2017-07-30T01:49:39.093Z,21.46
2017-07-30T01:52:06.506Z,21.56
2017-07-30T01:54:33.890Z,21.63
2017-07-30T01:57:01.292Z,21.63
2017-07-30T01:59:29.010Z,21.59
2017-07-30T02:01:56.615Z,21.46
2017-07-30T02:04:24.018Z,21.47
2017-07-30T02:06:51.640Z,21.41
2017-07-30T02:09:19.271Z,21.43
2017-07-30T02:11:46.670Z,21.37
2017-07-30T02:14:14.059Z,21.33
2017-07-30T02:16:41.465Z,21.39
2017-07-30T02:19:08.866Z,21.40
2017-07-30T02:21:36.267Z,21.43
2017-07-30T02:24:03.694Z,21.37
2017-07-30T02:26:31.087Z,21.37
2017-07-30T02:28:58.479Z,21.49
2017-07-30T02:31:26.101Z,21.46
2017-07-30T02:33:53.491Z,21.46
2017-07-30T02:36:20.908Z,21.50
2017-07-30T02:38:48.295Z,21.47
2017-07-30T02:41:15.927Z,21.64
2017-07-30T02:43:43.326Z,21.50
2017-07-30T02:46:10.747Z,21.49
2017-07-30T02:48:38.196Z,21.58
2017-07-30T02:51:05.576Z,21.59
2017-07-30T02:53:32.958Z,21.52
2017-07-30T02:56:00.358Z,21.51
2017-07-30T02:58:27.767Z,21.54
2017-07-30T03:00:55.189Z,21.60
2017-07-30T03:03:22.574Z,21.63
2017-07-30T03:05:49.969Z,21.60
2017-07-30T03:08:17.358Z,21.63
2017-07-30T03:10:44.759Z,21.72
2017-07-30T03:13:12.155Z,21.62
2017-07-30T03:15:39.572Z,21.61
2017-07-30T03:18:06.962Z,21.64
2017-07-30T03:20:34.419Z,21.69
2017-07-30T03:23:01.814Z,21.75
2017-07-30T03:25:29.198Z,21.81
2017-07-30T03:27:56.602Z,21.89
2017-07-30T03:30:24.002Z,21.83
2017-07-30T03:32:51.395Z,21.87
2017-07-30T03:35:18.786Z,21.94
2017-07-30T03:37:46.183Z,22.00
2017-07-30T03:40:13.574Z,22.01
2017-07-30T03:42:40.971Z,22.01
2017-07-30T03:45:08.363Z,22.04
2017-07-30T03:47:35.769Z,22.03
2017-07-30T03:50:03.159Z,22.03
2017-07-30T03:52:30.555Z,21.99
2017-07-30T03:54:57.947Z,22.04
2017-07-30T03:57:25.553Z,22.03
2017-07-30T03:59:52.950Z,22.04
2017-07-30T04:02:20.346Z,22.09
2017-07-30T04:04:47.739Z,22.07
2017-07-30T04:07:15.137Z,22.02
2017-07-30T04:09:42.519Z,21.94
2017-07-30T04:12:09.903Z,21.84
2017-07-30T04:14:37.307Z,21.80
2017-07-30T04:17:04.695Z,21.77
2017-07-30T04:19:32.102Z,21.84
2017-07-30T04:21:59.499Z,21.88
2017-07-30T04:24:26.894Z,22.01
2017-07-30T04:26:54.279Z,21.86
2017-07-30T04:29:21.894Z,21.82
2017-07-30T04:31:49.286Z,21.80
2017-07-30T04:34:16.681Z,21.87
2017-07-30T04:36:44.070Z,21.83
2017-07-30T04:39:11.492Z,21.76
2017-07-30T04:41:38.891Z,21.88
2017-07-30T04:44:06.282Z,21.86
2017-07-30T04:46:33.667Z,21.92
2017-07-30T04:49:01.062Z,21.86
2017-07-30T04:51:28.451Z,21.93
2017-07-30T04:53:55.848Z,21.75
2017-07-30T04:56:23.258Z,21.83
2017-07-30T04:58:50.650Z,21.89
2017-07-30T05:01:18.043Z,21.95
2017-07-30T05:03:45.427Z,21.99
2017-07-30T05:06:12.839Z,22.08
2017-07-30T05:08:40.222Z,22.11
2017-07-30T05:11:07.614Z,22.08
2017-07-30T05:13:35.014Z,22.06
2017-07-30T05:16:02.447Z,22.08
2017-07-30T05:18:29.838Z,22.17
2017-07-30T05:20:57.241Z,22.14
2017-07-30T05:23:24.650Z,22.27
2017-07-30T05:25:52.050Z,22.24
2017-07-30T05:28:19.455Z,22.30
2017-07-30T05:30:46.855Z,22.31
2017-07-30T05:33:14.251Z,22.36
2017-07-30T05:35:41.650Z,22.39
2017-07-30T05:38:09.047Z,22.46
2017-07-30T05:40:36.434Z,22.49
2017-07-30T05:43:03.871Z,22.49
2017-07-30T05:45:31.271Z,22.38
2017-07-30T05:47:58.680Z,22.42
2017-07-30T05:50:26.083Z,22.42
2017-07-30T05:52:53.693Z,22.32
2017-07-30T05:55:21.102Z,22.34
2017-07-30T05:57:48.723Z,22.35
2017-07-30T06:00:16.111Z,22.47
2017-07-30T06:02:43.503Z,22.39
2017-07-30T06:05:10.895Z,22.31
2017-07-30T06:07:38.311Z,22.34
2017-07-30T06:10:05.707Z,22.44
2017-07-30T06:12:33.102Z,22.48
2017-07-30T06:15:00.523Z,22.54
2017-07-30T06:17:27.929Z,22.48
2017-07-30T06:19:55.317Z,22.53
2017-07-30T06:22:22.711Z,22.56
2017-07-30T06:24:50.103Z,22.57
2017-07-30T06:27:17.494Z,22.64
2017-07-30T06:29:44.874Z,22.66
2017-07-30T06:32:12.269Z,22.59
2017-07-30T06:34:39.650Z,22.52
2017-07-30T06:37:07.041Z,22.45
2017-07-30T06:39:34.434Z,22.41
2017-07-30T06:42:01.841Z,22.40
2017-07-30T06:44:29.254Z,22.45
2017-07-30T06:46:56.651Z,22.48
2017-07-30T06:49:24.044Z,22.46
2017-07-30T06:51:51.435Z,22.49
2017-07-30T06:54:18.825Z,22.51
2017-07-30T06:56:46.211Z,22.56
2017-07-30T06:59:13.607Z,22.63
2017-07-30T07:01:40.995Z,22.81
2017-07-30T07:04:08.603Z,22.90
2017-07-30T07:06:35.987Z,23.05
2017-07-30T07:09:03.387Z,23.12
2017-07-30T07:11:30.770Z,23.22
2017-07-30T07:13:58.167Z,23.30
2017-07-30T07:16:25.547Z,23.41
2017-07-30T07:18:52.947Z,23.46
2017-07-30T07:21:20.557Z,23.65
2017-07-30T07:23:47.951Z,23.74
2017-07-30T07:26:15.334Z,23.83
2017-07-30T07:28:42.939Z,23.80
2017-07-30T07:31:10.337Z,23.92
2017-07-30T07:33:37.967Z,24.07
2017-07-30T07:36:05.356Z,24.10
2017-07-30T07:38:32.743Z,24.19
2017-07-30T07:41:00.127Z,24.24
2017-07-30T07:43:27.518Z,24.30
2017-07-30T07:45:54.898Z,24.40
2017-07-30T07:48:22.284Z,24.53
2017-07-30T07:50:49.683Z,24.55
2017-07-30T07:53:17.067Z,24.53
2017-07-30T07:55:44.472Z,24.65
2017-07-30T07:58:11.857Z,24.68
2017-07-30T08:00:39.267Z,24.78
2017-07-30T08:03:06.660Z,24.77
2017-07-30T08:05:34.063Z,24.86
2017-07-30T08:08:01.450Z,24.94
2017-07-30T08:10:28.834Z,25.07
2017-07-30T08:12:56.223Z,25.04
2017-07-30T08:15:23.615Z,25.14
2017-07-30T08:17:50.998Z,25.23
2017-07-30T08:20:18.399Z,25.35
2017-07-30T08:22:45.795Z,25.33
2017-07-30T08:25:13.183Z,25.48
2017-07-30T08:27:40.566Z,25.61
2017-07-30T08:30:07.974Z,25.64
2017-07-30T08:32:35.363Z,25.67
2017-07-30T08:35:02.750Z,25.79
2017-07-30T08:37:30.146Z,25.84
2017-07-30T08:39:57.528Z,25.83
2017-07-30T08:42:24.915Z,25.83
2017-07-30T08:44:52.295Z,25.95
2017-07-30T08:47:19.695Z,26.05
2017-07-30T08:49:47.079Z,26.08
2017-07-30T08:52:14.470Z,26.21
2017-07-30T08:54:41.879Z,26.27
2017-07-30T08:57:09.300Z,26.34
2017-07-30T08:59:36.668Z,26.40
2017-07-30T09:02:04.054Z,26.57
2017-07-30T09:04:31.435Z,26.69
2017-07-30T09:06:58.828Z,26.73
2017-07-30T09:09:26.215Z,26.82
2017-07-30T09:11:55.615Z,26.92
2017-07-30T09:14:23.015Z,27.00
2017-07-30T09:16:50.437Z,26.96
2017-07-30T09:19:17.815Z,27.03
2017-07-30T09:21:45.301Z,27.14
2017-07-30T09:24:12.678Z,27.15
2017-07-30T09:26:40.067Z,27.23
2017-07-30T09:29:07.466Z,27.17
2017-07-30T09:31:34.855Z,27.22
2017-07-30T09:34:02.275Z,27.29
2017-07-30T09:36:29.642Z,27.30
2017-07-30T09:38:57.040Z,27.41
2017-07-30T09:41:24.440Z,27.46
2017-07-30T09:43:51.826Z,27.47
2017-07-30T09:46:19.203Z,27.46
2017-07-30T09:48:46.603Z,27.52
2017-07-30T09:51:13.990Z,27.44
2017-07-30T09:53:41.391Z,27.44
2017-07-30T09:56:08.770Z,27.47
2017-07-30T09:58:36.155Z,27.57
2017-07-30T10:01:03.536Z,27.67
2017-07-30T10:03:30.940Z,27.76
2017-07-30T10:05:58.328Z,27.85
2017-07-30T10:08:25.952Z,27.85
2017-07-30T10:10:53.335Z,27.78
2017-07-30T10:13:20.732Z,27.79
2017-07-30T10:15:48.119Z,27.79
2017-07-30T10:18:15.507Z,27.76
2017-07-30T10:20:42.905Z,27.78
2017-07-30T10:23:10.298Z,27.78
2017-07-30T10:25:37.686Z,27.70
2017-07-30T10:28:05.076Z,27.63
2017-07-30T10:30:32.479Z,27.62
2017-07-30T10:32:59.859Z,27.64
2017-07-30T10:35:27.250Z,27.71
2017-07-30T10:37:54.649Z,27.78
2017-07-30T10:40:22.040Z,27.80
2017-07-30T10:42:49.422Z,27.79
2017-07-30T10:45:17.035Z,27.80
2017-07-30T10:47:44.439Z,27.89
2017-07-30T10:50:11.826Z,27.98
2017-07-30T10:52:39.218Z,27.99
2017-07-30T10:55:06.610Z,28.06
2017-07-30T10:57:34.002Z,27.99
2017-07-30T11:00:01.413Z,28.03
2017-07-30T11:02:28.801Z,28.08
2017-07-30T11:04:56.394Z,28.02
2017-07-30T11:07:23.784Z,28.00
2017-07-30T11:09:51.167Z,28.04
2017-07-30T11:12:18.563Z,28.05
2017-07-30T11:14:45.944Z,28.20
2017-07-30T11:17:13.363Z,28.27
2017-07-30T11:19:40.751Z,28.24
2017-07-30T11:22:08.146Z,28.29
2017-07-30T11:24:35.543Z,28.31
2017-07-30T11:27:03.000Z,28.40
2017-07-30T11:29:31.379Z,28.53
2017-07-30T11:31:59.134Z,28.66
2017-07-30T11:34:26.534Z,28.49
2017-07-30T11:36:53.916Z,28.67
2017-07-30T11:39:21.316Z,28.69
2017-07-30T11:41:48.910Z,28.68
2017-07-30T11:44:16.299Z,28.65
2017-07-30T11:46:44.144Z,28.63
2017-07-30T11:49:11.506Z,28.67
2017-07-30T11:51:38.919Z,28.61
2017-07-30T11:54:06.306Z,28.70
2017-07-30T11:56:33.707Z,28.75
2017-07-30T11:59:01.097Z,28.78
2017-07-30T12:01:28.478Z,28.88
2017-07-30T12:03:55.883Z,28.87
2017-07-30T12:06:23.271Z,28.82
2017-07-30T12:08:50.678Z,28.81
2017-07-30T12:11:18.051Z,28.91
2017-07-30T12:13:45.455Z,29.02
2017-07-30T12:16:12.842Z,29.01
2017-07-30T12:18:40.231Z,29.09
2017-07-30T12:21:07.614Z,29.25
2017-07-30T12:23:35.027Z,29.29
2017-07-30T12:26:02.415Z,29.18
2017-07-30T12:28:29.800Z,29.11
2017-07-30T12:30:57.183Z,29.08
2017-07-30T12:33:24.574Z,29.04
2017-07-30T12:35:51.963Z,29.00
2017-07-30T12:38:19.364Z,29.01
2017-07-30T12:40:46.954Z,29.17
2017-07-30T12:43:14.347Z,29.29
2017-07-30T12:45:41.955Z,29.32
2017-07-30T12:48:09.363Z,29.32
2017-07-30T12:50:36.750Z,29.44
2017-07-30T12:53:04.139Z,29.37
2017-07-30T12:55:31.539Z,29.39
2017-07-30T12:57:58.927Z,29.48
2017-07-30T13:00:26.318Z,29.50
2017-07-30T13:02:53.703Z,29.51
2017-07-30T13:05:21.103Z,29.43
2017-07-30T13:07:48.497Z,29.32
2017-07-30T13:10:15.898Z,29.36
2017-07-30T13:12:43.276Z,29.25
2017-07-30T13:15:10.667Z,29.19
2017-07-30T13:17:38.066Z,29.25
2017-07-30T13:20:05.458Z,29.33
2017-07-30T13:22:32.838Z,29.34
2017-07-30T13:25:00.234Z,29.39
2017-07-30T13:27:27.618Z,29.25
2017-07-30T13:29:55.230Z,29.15
2017-07-30T13:32:22.639Z,29.05
2017-07-30T13:34:50.031Z,29.13
2017-07-30T13:37:17.431Z,29.21
2017-07-30T13:39:44.826Z,29.23
2017-07-30T13:42:12.226Z,29.20
2017-07-30T13:44:39.611Z,29.14
2017-07-30T13:47:07.010Z,29.27
2017-07-30T13:49:34.399Z,29.32
2017-07-30T13:52:01.799Z,29.33
2017-07-30T13:54:29.188Z,29.41
2017-07-30T13:56:56.578Z,29.31
2017-07-30T13:59:23.964Z,29.30
2017-07-30T14:01:51.359Z,29.27
2017-07-30T14:04:18.742Z,29.28
2017-07-30T14:06:46.138Z,29.26
2017-07-30T14:09:13.734Z,29.25
2017-07-30T14:11:41.130Z,29.25
2017-07-30T14:14:08.519Z,29.24
2017-07-30T14:16:35.919Z,29.20
2017-07-30T14:19:03.512Z,29.27
2017-07-30T14:21:30.907Z,29.16
2017-07-30T14:23:58.299Z,29.23
2017-07-30T14:26:25.699Z,29.32
2017-07-30T14:28:53.086Z,29.20
2017-07-30T14:31:20.686Z,29.11
2017-07-30T14:33:48.080Z,29.09
2017-07-30T14:36:15.462Z,29.12
2017-07-30T14:38:42.862Z,29.11
2017-07-30T14:41:10.262Z,29.08
2017-07-30T14:43:37.672Z,29.10
2017-07-30T14:46:05.055Z,29.10
2017-07-30T14:48:32.454Z,29.01
2017-07-30T14:50:59.838Z,28.96
2017-07-30T14:53:27.231Z,28.99
2017-07-30T14:55:54.622Z,28.99
2017-07-30T14:58:22.019Z,29.02
2017-07-30T15:00:49.408Z,28.85
2017-07-30T15:03:16.802Z,28.79
2017-07-30T15:05:44.198Z,28.75
2017-07-30T15:08:11.595Z,28.72
2017-07-30T15:10:38.979Z,28.65
2017-07-30T15:13:06.380Z,28.66
2017-07-30T15:15:33.766Z,28.80
2017-07-30T15:18:01.176Z,28.83
2017-07-30T15:20:28.644Z,28.82
2017-07-30T15:22:56.075Z,28.75
2017-07-30T15:25:23.458Z,28.72
2017-07-30T15:27:50.846Z,28.87
2017-07-30T15:30:18.234Z,28.69
2017-07-30T15:32:46.185Z,28.65
2017-07-30T15:35:13.558Z,28.55
2017-07-30T15:37:40.947Z,28.60
2017-07-30T15:40:08.334Z,28.59
2017-07-30T15:42:35.727Z,28.59
2017-07-30T15:45:03.131Z,28.52
2017-07-30T15:47:30.518Z,28.52
2017-07-30T15:49:57.916Z,28.55
2017-07-30T15:52:25.323Z,28.45
2017-07-30T15:54:52.714Z,28.39
2017-07-30T15:57:20.115Z,28.37
2017-07-30T15:59:47.502Z,28.40
2017-07-30T16:02:14.911Z,28.43
2017-07-30T16:04:42.311Z,28.49
2017-07-30T16:07:09.695Z,28.54
2017-07-30T16:09:37.107Z,28.49
2017-07-30T16:12:04.495Z,28.35
2017-07-30T16:14:31.893Z,28.33
2017-07-30T16:16:59.286Z,28.34
2017-07-30T16:19:26.682Z,28.16
2017-07-30T16:21:54.075Z,28.09
2017-07-30T16:24:21.462Z,28.04
2017-07-30T16:26:48.863Z,28.01
2017-07-30T16:29:16.247Z,27.95
2017-07-30T16:31:43.659Z,27.85
2017-07-30T16:34:11.035Z,27.79
2017-07-30T16:36:38.427Z,27.74
2017-07-30T16:39:05.811Z,27.70
2017-07-30T16:41:33.202Z,27.75
2017-07-30T16:44:00.592Z,27.75
2017-07-30T16:46:28.203Z,27.81
2017-07-30T16:48:55.595Z,27.76
2017-07-30T16:51:22.983Z,27.76
2017-07-30T16:53:50.366Z,27.78
2017-07-30T16:56:17.763Z,27.65
2017-07-30T16:58:45.151Z,27.72
2017-07-30T17:01:12.543Z,27.69
2017-07-30T17:03:39.931Z,27.62
2017-07-30T17:06:07.323Z,27.55
2017-07-30T17:08:34.707Z,27.59
2017-07-30T17:11:02.099Z,27.50
2017-07-30T17:13:29.486Z,27.50
2017-07-30T17:15:56.882Z,27.49
2017-07-30T17:18:24.267Z,27.44
2017-07-30T17:20:51.662Z,27.29
2017-07-30T17:23:19.056Z,27.28
2017-07-30T17:25:46.439Z,27.26
2017-07-30T17:28:14.043Z,27.21
2017-07-30T17:30:41.428Z,27.18
2017-07-30T17:33:08.823Z,27.23
2017-07-30T17:35:36.207Z,27.06
2017-07-30T17:38:03.606Z,26.93
2017-07-30T17:40:30.999Z,26.90
2017-07-30T17:42:58.383Z,26.79
2017-07-30T17:45:25.770Z,26.50
2017-07-30T17:47:53.172Z,25.98
2017-07-30T17:50:20.571Z,25.63
2017-07-30T17:52:47.965Z,25.48
2017-07-30T17:55:15.352Z,25.33
2017-07-30T17:57:42.750Z,25.19
2017-07-30T18:00:10.150Z,25.10
2017-07-30T18:02:37.550Z,24.97
2017-07-30T18:05:04.938Z,24.85
2017-07-30T18:07:32.335Z,24.58
2017-07-30T18:09:59.735Z,24.37
2017-07-30T18:12:27.143Z,24.08
2017-07-30T18:14:55.376Z,24.03
2017-07-30T18:17:22.771Z,23.99
2017-07-30T18:19:50.162Z,23.84
2017-07-30T18:22:17.564Z,23.85
2017-07-30T18:24:44.954Z,23.97
2017-07-30T18:27:12.349Z,23.98
2017-07-30T18:29:39.735Z,24.06
2017-07-30T18:32:07.133Z,24.12
2017-07-30T18:34:34.524Z,24.26
2017-07-30T18:37:01.945Z,24.37
2017-07-30T18:39:29.347Z,24.46
2017-07-30T18:41:56.739Z,24.52
2017-07-30T18:44:24.310Z,24.63
2017-07-30T18:46:51.707Z,24.84
2017-07-30T18:49:19.096Z,24.93
2017-07-30T18:51:46.507Z,25.03
2017-07-30T18:54:14.103Z,25.05
2017-07-30T18:56:41.619Z,25.12
2017-07-30T18:59:09.010Z,25.18
2017-07-30T19:01:36.407Z,25.10
2017-07-30T19:04:04.707Z,25.00
2017-07-30T19:06:32.125Z,24.83
2017-07-30T19:08:59.531Z,24.59
2017-07-30T19:11:26.939Z,24.33
2017-07-30T19:13:54.363Z,24.04
2017-07-30T19:16:21.756Z,23.83
2017-07-30T19:18:49.152Z,23.61
2017-07-30T19:21:18.141Z,23.48
2017-07-30T19:23:45.639Z,23.44
2017-07-30T19:26:13.015Z,23.24
2017-07-30T19:28:40.420Z,23.17
2017-07-30T19:31:07.838Z,23.26
2017-07-30T19:33:35.303Z,23.26
2017-07-30T19:36:02.899Z,23.34
2017-07-30T19:38:30.518Z,23.36
2017-07-30T19:40:57.923Z,23.51
2017-07-30T19:43:25.522Z,23.55
2017-07-30T19:45:52.964Z,23.65
2017-07-30T19:48:20.355Z,23.81
2017-07-30T19:50:47.748Z,23.77
2017-07-30T19:53:15.139Z,23.82
2017-07-30T19:55:42.543Z,23.69
2017-07-30T19:58:09.926Z,23.58
2017-07-30T20:00:37.412Z,23.65
2017-07-30T20:03:04.805Z,23.62
2017-07-30T20:05:32.249Z,23.68
2017-07-30T20:07:59.652Z,23.74
2017-07-30T20:10:27.051Z,23.78
2017-07-30T20:12:54.451Z,23.82
2017-07-30T20:15:21.848Z,23.85
2017-07-30T20:17:49.250Z,23.79
2017-07-30T20:20:16.727Z,23.84
2017-07-30T20:22:44.144Z,23.90
2017-07-30T20:25:11.540Z,23.84
2017-07-30T20:27:38.953Z,23.79
2017-07-30T20:30:06.353Z,23.74
2017-07-30T20:32:33.752Z,23.76
2017-07-30T20:35:01.263Z,23.87
2017-07-30T20:37:28.650Z,23.90
2017-07-30T20:39:56.059Z,23.96
2017-07-30T20:42:23.439Z,24.10
2017-07-30T20:44:50.839Z,24.16
2017-07-30T20:47:18.227Z,24.26
2017-07-30T20:49:45.623Z,24.27
2017-07-30T20:52:13.010Z,24.32
2017-07-30T20:54:40.410Z,24.34
2017-07-30T20:57:07.802Z,24.42
2017-07-30T20:59:35.216Z,24.42
2017-07-30T21:02:02.799Z,24.40
2017-07-30T21:04:30.197Z,24.51
2017-07-30T21:06:57.587Z,24.48
2017-07-30T21:09:24.983Z,24.44
2017-07-30T21:11:52.366Z,24.49
2017-07-30T21:14:19.760Z,24.41
2017-07-30T21:16:47.151Z,24.35
2017-07-30T21:19:14.577Z,24.40
2017-07-30T21:21:41.953Z,24.33
2017-07-30T21:24:09.558Z,24.26
2017-07-30T21:26:36.967Z,24.28
2017-07-30T21:29:04.362Z,24.29
2017-07-30T21:31:31.751Z,24.34
2017-07-30T21:33:59.143Z,24.17
2017-07-30T21:36:26.535Z,24.13
2017-07-30T21:38:53.923Z,24.06
2017-07-30T21:41:21.328Z,24.03
2017-07-30T21:43:48.715Z,23.95
2017-07-30T21:46:16.115Z,23.97
2017-07-30T21:48:43.515Z,24.05
2017-07-30T21:51:10.914Z,23.98
2017-07-30T21:53:38.312Z,24.04
2017-07-30T21:56:05.711Z,24.05
2017-07-30T21:58:33.095Z,23.96
2017-07-30T22:01:00.495Z,24.09
2017-07-30T22:03:27.886Z,24.03
2017-07-30T22:05:55.302Z,23.91
2017-07-30T22:08:22.696Z,23.83
2017-07-30T22:10:50.094Z,23.74
2017-07-30T22:13:17.489Z,23.69
2017-07-30T22:15:44.874Z,23.69
2017-07-30T22:18:12.297Z,23.67
2017-07-30T22:20:39.686Z,23.71
2017-07-30T22:23:07.101Z,23.65
2017-07-30T22:25:34.699Z,23.58
2017-07-30T22:28:02.096Z,23.49
2017-07-30T22:30:29.479Z,23.44
2017-07-30T22:32:56.887Z,23.43
2017-07-30T22:35:24.262Z,23.40
2017-07-30T22:37:51.671Z,23.45
2017-07-30T22:40:19.073Z,23.49
2017-07-30T22:42:46.470Z,23.51
2017-07-30T22:45:13.850Z,23.50
2017-07-30T22:47:41.253Z,23.39
2017-07-30T22:50:08.646Z,23.35
2017-07-30T22:52:36.040Z,23.32
2017-07-30T22:55:03.432Z,23.25
2017-07-30T22:57:31.043Z,23.21
2017-07-30T22:59:58.433Z,23.14
2017-07-30T23:02:25.823Z,23.03
2017-07-30T23:04:53.215Z,22.94
2017-07-30T23:07:20.599Z,22.98
2017-07-30T23:09:48.000Z,22.94
2017-07-30T23:12:15.388Z,22.97
2017-07-30T23:14:42.784Z,22.95
2017-07-30T23:17:10.180Z,23.00
2017-07-30T23:19:37.575Z,23.05
2017-07-30T23:22:04.967Z,23.01
2017-07-30T23:24:32.365Z,23.05
2017-07-30T23:26:59.750Z,23.07
2017-07-30T23:29:27.139Z,23.00
2017-07-30T23:31:54.530Z,23.09
2017-07-30T23:34:21.947Z,23.08
2017-07-30T23:36:49.598Z,22.99
2017-07-30T23:39:16.980Z,22.97
2017-07-30T23:41:44.364Z,22.94
2017-07-30T23:44:11.763Z,22.93
2017-07-30T23:46:39.160Z,22.82
2017-07-30T23:49:06.551Z,22.95
2017-07-30T23:51:33.964Z,22.83
2017-07-30T23:54:01.390Z,22.84
2017-07-30T23:56:28.760Z,22.81
2017-07-30T23:58:56.148Z,22.66
